Hit Tracker is now ESPN Home Run Tracker! Hit Tracker founder Greg Rybarczyk is now collaborating with the ESPN Stats & Information Group to continue tracking all MLB home runs, and helping baseball fans know "How Far It Really Went!™" Please credit any information on this site to ESPN Stats & Information Group. For more information and analysis on home runs, please contact founder Greg Rybarczyk. E-Mail ESPN Home Run Tracker
Main Page | Ballparks | Park Overlays | Glossary | Highlight Homers | Feedback | Bio | 3 Types of HR's | AAA Home Run Derby Last Updated: September 21, 2014, 10:03 am PST
Welcome to the ESPN Home Run Tracker! Check out the ESPN MLB Scoreboard throughout the 2014 season! Contact us at grybar@hittrackeronline.com.
Season:
Ballpark detail for Citizens Bank Park
Ballpark # of Home Runs HR per game Avg.
True
Distance
Avg.
Speed
Off
Bat
Avg.
Std.
Dist.
Citizens Bank Park 137 1.76 386.3 101.6 385.5

Scatter Plot of Home Runs Citizens Bank Park
 Overlay Ballpark:
Without range rings   With range rings

2014 Season Home Runs for Citizens Bank Park
Click headers to sort
Date Video Path Hitter Hitter
Team
Pitcher Pitcher
Team
INN Ballpark Type/
Luck
True
Dist.
Speed
Off
Bat
Elev.
Angle
Horiz.
Angle
Apex Impact Due To: Std.
Dist.
#
Parks
Wind Temp. Alt. ^
05/31/14 Video View Tejada, Ruben NYM Kendrick, Kyle PHI 4 Citizens Ban... PL 371 98.1 29.3 110.9 82 0 0 0 370 20
05/31/14 Video View Howard, Ryan PHI deGrom, Jacob NYM 7 Citizens Ban... PL 369 97.0 34.7 104.2 117 0 1 0 369 12
06/01/14 Video View Howard, Ryan PHI Niese, Jonathon NYM 4 Citizens Ban... PL 427 105.4 25.3 94.8 89 -1 0 0 428 27
06/01/14 Video View Duda, Lucas NYM Aumont, Phillippe PHI 11 Citizens Ban... JE/L 415 107.4 20.8 94.0 65 0 0 0 415 19
06/01/14 Video View Byrd, Marlon PHI Mejia, Jenrry NYM 11 Citizens Ban... JE 348 95.7 30.0 119.6 76 0 1 0 348 9
06/02/14 Video View Flores, Wilmer NYM Aumont, Phillippe PHI 9 Citizens Ban... ND 402 102.9 30.5 108.6 102 2 0 0 400 30
05/30/14 Video View Brown, Domonic PHI Montero, Rafael NYM 4 Citizens Ban... PL 352 96.4 38.5 69.1 127 10 -1 0 342 5
05/29/14 Video View Byrd, Marlon PHI Wheeler, Zack NYM 7 Citizens Ban... PL 367 96.3 32.7 74.4 105 -1 -2 0 369 11
05/29/14 Video View Young, Chris NYM Buchanan, David PHI 4 Citizens Ban... PL 380 98.3 31.1 104.9 100 1 -2 0 381 22
05/28/14 Video View Howard, Ryan PHI Logan, Boone COL 9 Citizens Ban... ND 439 108.2 24.5 95.3 91 -1 -1 0 441 30
05/28/14 Video View LeMahieu, DJ COL Diekman, Jake PHI 8 Citizens Ban... JE/L 353 94.5 30.0 111.4 79 3 -2 0 351 6
05/28/14 Video View Morneau, Justin COL Hernandez, Roberto PHI 3 Citizens Ban... PL 356 100.6 27.9 55.9 73 -3 -1 0 361 29
05/27/14 Video View Revere, Ben PHI Logan, Boone COL 7 Citizens Ban... JE 357 94.9 30.5 71.2 86 0 0 0 358 6
05/27/14 Video View Rosario, Wilin COL Hamels, Cole PHI 7 Citizens Ban... JE 351 94.2 32.1 69.9 92 -2 0 0 353 9
05/27/14 Video View Ruf, Darin PHI De La Rosa, Jorge COL 4 Citizens Ban... PL 376 99.3 35.1 103.2 128 -2 -1 0 379 21
05/26/14 Video View Mayberry Jr., John PHI Brothers, Rex COL 7 Citizens Ban... PL 379 101.8 29.2 119.0 82 -1 1 0 378 30
05/26/14 Video View Howard, Ryan PHI Chacin, Jhoulys COL 6 Citizens Ban... PL 419 107.4 22.3 82.7 69 0 0 0 419 28
05/25/14 Video View Turner, Justin LAD Burnett, A.J. PHI 2 Citizens Ban... PL 422 103.9 24.8 91.5 83 1 0 0 420 25
05/24/14 Video View Utley, Chase PHI Haren, Dan LAD 1 Citizens Ban... PL 370 100.1 35.6 67.3 122 0 0 0 370 29
04/08/14 Video View Braun, Ryan MIL Kendrick, Kyle PHI 3 Citizens Ban... PL 380 99.1 29.0 107.4 88 1 -1 0 381 24
04/08/14 Video View Braun, Ryan MIL Kendrick, Kyle PHI 4 Citizens Ban... JE/L 378 96.9 29.2 78.7 88 1 -1 0 377 3
04/08/14 Video View Braun, Ryan MIL Lincoln, Brad PHI 8 Citizens Ban... PL 406 105.2 23.9 101.8 74 1 -1 0 406 28
04/09/14 Video View Gomez, Carlos MIL Hernandez, Roberto PHI 4 Citizens Ban... PL 378 104.9 24.7 115.9 65 0 -1 0 379 29
04/09/14 Video View Reynolds, Mark MIL De Fratus, Justin PHI 9 Citizens Ban... JE 397 100.6 26.0 97.0 83 0 -1 0 398 9
04/10/14 Video View Byrd, Marlon PHI Estrada, Marco MIL 2 Citizens Ban... ND 407 107.1 26.5 114.2 78 3 -1 0 404 30
04/11/14 Video View Dietrich, Derek MIA Burnett, A.J. PHI 2 Citizens Ban... PL 406 104.2 25.4 78.2 82 -2 0 0 408 29
04/12/14 Video View Stanton, Giancarlo MIA Pettibone, Jonathan PHI 5 Citizens Ban... ND 469 113.5 24.6 98.5 93 4 -1 0 465 30
04/12/14 Video View Stanton, Giancarlo MIA De Fratus, Justin PHI 7 Citizens Ban... ND 403 113.6 23.6 125.4 62 2 -1 0 403 30
04/12/14 Video View Rollins, Jimmy PHI Jennings, Dan MIA 10 Citizens Ban... PL 347 98.3 38.0 114.7 129 0 -4 0 350 16
04/13/14 Video View Howard, Ryan PHI Alvarez, Henderson MIA 3 Citizens Ban... PL/L 417 99.5 34.8 99.0 119 31 2 0 385 1
04/13/14 Video View Jones, Garrett MIA Kendrick, Kyle PHI 5 Citizens Ban... PL 373 93.6 34.6 67.1 91 27 2 0 345 1
04/13/14 Video View Utley, Chase PHI Dunn, Mike MIA 8 Citizens Ban... PL 395 97.9 34.5 73.4 107 22 2 0 371 13
04/14/14 Video View Howard, Ryan PHI Santana, Ervin ATL 2 Citizens Ban... JE 422 110.2 20.6 83.4 63 -1 0 0 423 26
04/14/14 Video View Gattis, Evan ATL Hernandez, Roberto PHI 6 Citizens Ban... JE 362 95.2 29.8 69.2 76 7 -1 0 356 8
04/14/14 Video View Gattis, Evan ATL Rosenberg, B.J. PHI 8 Citizens Ban... PL 400 106.7 22.9 105.0 66 2 0 0 399 26
04/14/14 Video View Uggla, Dan ATL Rosenberg, B.J. PHI 8 Citizens Ban... ND 420 109.9 24.6 109.5 77 2 0 0 418 30
04/14/14 Video View Simmons, Andrelton ATL Rosenberg, B.J. PHI 8 Citizens Ban... PL 395 106.5 22.7 106.2 63 2 -1 0 393 22
04/14/14 Video View Brown, Domonic PHI Avilan, Luis ATL 8 Citizens Ban... JE 392 111.0 19.3 78.0 51 -1 0 0 393 15
04/14/14 Video View Uggla, Dan ATL Diekman, Jake PHI 9 Citizens Ban... PL 403 102.4 30.6 105.9 108 3 -1 0 401 30
04/16/14 Video View Gattis, Evan ATL Lee, Cliff PHI 4 Citizens Ban... JE 343 101.6 35.2 111.4 134 -26 -7 0 379 30
04/29/14 Video View Byrd, Marlon PHI Niese, Jonathon NYM 4 Citizens Ban... PL 404 102.6 30.4 100.2 113 -1 -5 0 410 30
05/02/14 Video View Byrd, Marlon PHI Strasburg, Stephen WSH 1 Citizens Ban... PL 386 99.0 27.5 77.4 81 2 0 0 384 18
05/02/14 Video View Moore, Tyler WSH Lee, Cliff PHI 3 Citizens Ban... JE 368 106.3 22.6 118.1 55 1 -1 0 367 12
05/03/14 Video View Howard, Ryan PHI Roark, Tanner WSH 1 Citizens Ban... JE 381 99.6 26.7 105.6 75 3 0 0 379 8
05/03/14 Video View Asche, Cody PHI Roark, Tanner WSH 2 Citizens Ban... PL 381 109.9 21.7 63.9 52 1 0 0 380 25
05/03/14 Video View LaRoche, Adam WSH Burnett, A.J. PHI 6 Citizens Ban... JE/L 336 98.2 41.1 62.5 139 13 -3 0 326 4
05/03/14 Video View Walters, Zach WSH Hollands, Mario PHI 7 Citizens Ban... JE 360 103.9 24.4 123.4 58 0 0 0 360 25
05/05/14 Video View Reyes, Jose TOR Kendrick, Kyle PHI 1 Citizens Ban... PL 365 98.4 34.0 66.2 108 -2 -1 0 368 27
05/06/14 Video View Encarnacion, Edwin TOR Hamels, Cole PHI 2 Citizens Ban... ND 412 107.0 28.8 109.9 101 -6 0 0 418 30
05/06/14 Video View Rasmus, Colby TOR Hamels, Cole PHI 4 Citizens Ban... JE 412 103.0 27.6 84.2 102 -5 0 0 418 27
05/06/14 Video View Asche, Cody PHI Hutchison, Drew TOR 6 Citizens Ban... JE 365 98.7 33.1 77.8 122 -18 -1 0 384 25
05/16/14 Video View Mesoraco, Devin CIN Kendrick, Kyle PHI 1 Citizens Ban... JE 371 102.1 23.6 108.2 60 0 0 0 371 5
05/17/14 Video View Brown, Domonic PHI Bailey, Homer CIN 4 Citizens Ban... ND 407 105.1 30.2 64.6 94 7 -2 0 402 30
05/17/14 Video View Hernandez, Cesar PHI LeCure, Sam CIN 8 Citizens Ban... PL 358 96.4 31.7 63.6 87 2 -1 0 357 23
05/18/14 Video View Rollins, Jimmy PHI Cingrani, Tony CIN 1 Citizens Ban... PL 395 103.0 24.5 101.2 79 -2 0 0 397 27
05/18/14 Video View Nieves, Wil PHI Cingrani, Tony CIN 1 Citizens Ban... JE 365 101.3 24.6 110.9 66 -2 0 0 368 15
05/18/14 Video View Byrd, Marlon PHI Cingrani, Tony CIN 6 Citizens Ban... PL 354 98.3 26.4 68.7 73 -6 0 0 361 19
05/18/14 Video View Asche, Cody PHI Parra, Manny CIN 7 Citizens Ban... JE 353 101.4 24.4 62.7 61 -2 0 0 356 17
05/23/14 Video View Crawford, Carl LAD Hernandez, Roberto PHI 2 Citizens Ban... ND 420 106.3 29.7 80.4 121 -12 0 0 431 29
06/10/14 Video View Venable, Will SD Burnett, A.J. PHI 3 Citizens Ban... JE 395 111.9 20.1 73.4 52 0 0 0 394 23
06/10/14 Video View Byrd, Marlon PHI Kennedy, Ian SD 4 Citizens Ban... JE 386 98.4 28.5 77.2 86 3 0 0 383 10
06/11/14 Video View Brignac, Reid PHI Vincent, Nick SD 9 Citizens Ban... JE 356 98.4 27.4 63.5 70 0 0 0 357 13
06/12/14 Video View Mayberry Jr., John PHI Torres, Alex SD 7 Citizens Ban... ND 390 103.7 29.6 118.0 88 0 0 0 390 30
06/12/14 Video View Grandal, Yasmani SD Giles, Ken PHI 9 Citizens Ban... JE/L 348 95.2 37.5 110.5 120 4 0 0 344 6
06/13/14 Video View Castro, Starlin CHC Hernandez, Roberto PHI 4 Citizens Ban... JE 386 98.7 32.1 100.2 112 -2 0 0 388 15
06/14/14 Video View Utley, Chase PHI Jackson, Edwin CHC 1 Citizens Ban... PL 387 97.2 33.0 78.5 106 9 0 0 378 13
06/14/14 Video View Olt, Mike CHC Buchanan, David PHI 2 Citizens Ban... PL 385 102.8 26.9 113.2 76 1 0 0 385 29
06/14/14 Video View Ruggiano, Justin CHC Buchanan, David PHI 3 Citizens Ban... JE 381 108.2 20.9 108.2 53 2 0 0 380 8
06/14/14 Video View Valbuena, Luis CHC Buchanan, David PHI 4 Citizens Ban... JE/L 360 93.8 35.1 75.4 108 7 0 0 353 1
06/14/14 Video View Brown, Domonic PHI Jackson, Edwin CHC 5 Citizens Ban... PL 374 98.6 36.1 70.3 121 10 0 0 364 23
06/15/14 Video View Rizzo, Anthony CHC Burnett, A.J. PHI 1 Citizens Ban... PL 356 96.4 32.4 66.8 97 -7 1 0 361 25
06/24/14 Video View Byrd, Marlon PHI Heaney, Andrew MIA 1 Citizens Ban... JE 416 107.7 21.5 96.4 64 0 0 0 416 21
06/24/14 Video View Jones, Garrett MIA Rosenberg, B.J. PHI 8 Citizens Ban... ND 390 105.3 25.6 64.9 69 2 0 0 388 30
06/26/14 Video View Saltalamacchia, Jarrod MIA Hamels, Cole PHI 3 Citizens Ban... ND 394 103.7 29.6 113.1 95 -6 2 0 397 30
06/26/14 Video View Stanton, Giancarlo MIA Hamels, Cole PHI 4 Citizens Ban... JE 376 110.3 20.9 115.2 51 0 1 0 376 17
06/26/14 Video View Ozuna, Marcell MIA Hamels, Cole PHI 7 Citizens Ban... PL 412 103.1 29.0 98.2 107 -6 1 0 416 29
06/26/14 Video View Utley, Chase PHI Hatcher, Chris MIA 14 Citizens Ban... PL 387 100.0 32.1 74.8 110 -4 1 0 389 29
06/27/14 Video View Freeman, Freddie ATL Kendrick, Kyle PHI 1 Citizens Ban... PL 428 104.5 26.8 92.5 99 -1 0 0 428 29
06/28/14 Video View Doumit, Ryan ATL Rosenberg, B.J. PHI 8 Citizens Ban... PL 379 99.1 31.3 62.3 86 9 1 0 369 27
06/29/14 Video View Byrd, Marlon PHI Harang, Aaron ATL 2 Citizens Ban... PL 435 105.2 26.6 95.4 88 5 2 0 429 29
06/29/14 Video View Byrd, Marlon PHI Harang, Aaron ATL 4 Citizens Ban... PL 419 102.8 31.6 82.5 117 4 3 0 413 26
07/11/14 Video View Rollins, Jimmy PHI Zimmermann, Jordan WSH 3 Citizens Ban... PL 346 98.2 36.3 64.0 121 -14 2 0 357 29
07/11/14 Video View Harper, Bryce WSH Burnett, A.J. PHI 7 Citizens Ban... PL 391 109.5 21.2 72.5 55 0 0 0 391 24
07/11/14 Video View Rollins, Jimmy PHI Stammen, Craig WSH 7 Citizens Ban... JE 340 95.1 37.1 62.6 113 -3 1 0 341 16
07/12/14 Video View Werth, Jayson WSH Hamels, Cole PHI 6 Citizens Ban... PL 392 101.4 25.9 76.7 74 2 0 0 391 22
07/13/14 Video View Werth, Jayson WSH Kendrick, Kyle PHI 1 Citizens Ban... PL 372 101.0 26.0 113.4 66 2 1 0 369 16
07/13/14 Video View Zimmerman, Ryan WSH De Fratus, Justin PHI 8 Citizens Ban... PL 431 103.7 30.3 96.2 110 7 2 0 421 27
07/21/14 Video View Duvall, Adam SF Lee, Cliff PHI 6 Citizens Ban... JE 415 103.5 24.4 87.9 79 0 0 0 415 20
07/22/14 Video View Pence, Hunter SF Hernandez, Roberto PHI 5 Citizens Ban... ND 454 110.4 24.0 95.2 87 1 1 0 452 30
07/22/14 Video View Posey, Buster SF Papelbon, Jonathan PHI 9 Citizens Ban... PL 386 97.7 32.9 104.5 105 9 1 0 377 8
07/22/14 Video View Rollins, Jimmy PHI Petit, Yusmeiro SF 5 Citizens Ban... PL 377 96.9 30.0 74.3 86 4 1 0 372 7
07/25/14 Video View Marte, Alfredo ARI Bastardo, Antonio PHI 6 Citizens Ban... PL 391 103.9 26.4 110.6 78 -2 0 0 393 30
07/25/14 Video View Brown, Domonic PHI Marshall, Evan ARI 7 Citizens Ban... JE 355 100.1 25.9 61.0 63 -1 0 0 355 17
07/26/14 Video View Asche, Cody PHI Collmenter, Josh ARI 2 Citizens Ban... PL 365 97.1 29.6 67.7 81 1 0 0 363 16
07/26/14 Video View Prado, Martin ARI Lee, Cliff PHI 3 Citizens Ban... JE 354 98.0 27.3 120.0 64 4 0 0 350 4
07/26/14 Video View Byrd, Marlon PHI Collmenter, Josh ARI 3 Citizens Ban... PL 396 99.0 31.6 102.7 102 8 1 0 387 20
07/26/14 Video View Evans, Nick ARI Bastardo, Antonio PHI 10 Citizens Ban... PL 367 96.8 33.6 109.1 107 0 1 0 366 17
07/27/14 Video View Howard, Ryan PHI Nuno, Vidal ARI 1 Citizens Ban... JE 402 102.9 23.9 98.5 72 3 0 0 399 8
08/05/14 Video View Howard, Ryan PHI Keuchel, Dallas HOU 2 Citizens Ban... JE 390 99.3 33.7 99.8 121 0 2 0 388 13
08/06/14 Video View Utley, Chase PHI Peacock, Brad HOU 4 Citizens Ban... PL 376 98.3 29.2 72.7 87 -3 1 0 377 24
08/07/14 Video View Carter, Chris HOU O'Sullivan, Sean PHI 1 Citizens Ban... PL 357 98.4 34.2 114.1 111 -11 2 0 367 30
08/07/14 Video View Krauss, Marc HOU O'Sullivan, Sean PHI 1 Citizens Ban... JE 366 96.2 29.8 75.6 91 -6 1 0 371 10
08/07/14 Video View Carter, Chris HOU O'Sullivan, Sean PHI 3 Citizens Ban... JE 416 105.2 22.2 89.3 71 0 0 0 416 19
08/07/14 Video View Howard, Ryan PHI Sipp, Tony HOU 8 Citizens Ban... PL 405 102.3 28.9 96.9 110 -10 1 0 414 29
08/08/14 Video View d'Arnaud, Travis NYM Burnett, A.J. PHI 5 Citizens Ban... ND 424 110.6 23.8 107.0 74 1 1 0 422 30
08/08/14 Video View Byrd, Marlon PHI Colon, Bartolo NYM 7 Citizens Ban... PL 375 104.5 26.3 123.4 68 0 0 0 375 30
08/09/14 Video View Ruiz, Carlos PHI Gee, Dillon NYM 7 Citizens Ban... PL 374 99.0 33.1 114.1 102 1 1 0 372 29
08/10/14 Video View Utley, Chase PHI Wheeler, Zack NYM 1 Citizens Ban... JE 391 98.9 28.7 79.5 91 0 2 0 389 14
08/10/14 Video View d'Arnaud, Travis NYM Kendrick, Kyle PHI 5 Citizens Ban... PL 378 99.2 32.6 113.6 99 2 3 0 374 30
08/10/14 Video View Duda, Lucas NYM Kendrick, Kyle PHI 5 Citizens Ban... JE 423 107.4 21.2 91.3 68 0 0 0 422 22
08/11/14 Video View Ruf, Darin PHI Niese, Jonathon NYM 4 Citizens Ban... PL 428 101.9 28.4 89.0 89 12 1 0 415 22
08/11/14 Video View Recker, Anthony NYM De Fratus, Justin PHI 7 Citizens Ban... ND 423 105.4 29.3 106.4 99 5 2 0 416 30
08/18/14 Video View Blanco, Andres PHI Leone, Dominic SEA 5 Citizens Ban... PL 359 100.1 27.1 59.7 69 -1 1 0 360 26
08/19/14 Video View Seager, Kyle SEA Burnett, A.J. PHI 6 Citizens Ban... PL 391 100.6 30.8 72.7 100 0 1 0 390 30
08/20/14 Video View Morales, Kendrys SEA Hamels, Cole PHI 2 Citizens Ban... PL 417 101.9 28.6 89.2 102 0 2 0 415 23
08/22/14 Video View Adams, Matt STL Kendrick, Kyle PHI 3 Citizens Ban... PL 358 98.0 33.6 67.7 111 -10 1 0 368 22
08/23/14 Video View Peralta, Jhonny STL Buchanan, David PHI 2 Citizens Ban... PL 403 104.9 25.8 101.3 91 -3 -6 0 415 30
08/23/14 Video View Howard, Ryan PHI Miller, Shelby STL 6 Citizens Ban... JE 355 95.1 33.6 110.8 101 0 -1 0 356 10
08/24/14 Video View Rollins, Jimmy PHI Greenwood, Nick STL 7 Citizens Ban... PL 369 97.5 30.2 111.3 86 0 1 0 368 19
08/25/14 Video View Asche, Cody PHI Roark, Tanner WSH 5 Citizens Ban... PL 392 100.7 29.2 73.5 92 0 1 0 391 28
08/25/14 Video View Rendon, Anthony WSH Burnett, A.J. PHI 6 Citizens Ban... JE 350 97.5 28.0 120.9 68 0 1 0 349 9
08/25/14 Video View Ruiz, Carlos PHI Blevins, Jerry WSH 7 Citizens Ban... PL 349 97.4 38.2 113.1 128 0 2 0 347 8
08/25/14 Video View Ramos, Wilson WSH Papelbon, Jonathan PHI 9 Citizens Ban... JE 397 104.7 22.8 78.8 66 0 0 0 397 19
08/26/14 Video View Galvis, Freddy PHI Gonzalez, Gio WSH 5 Citizens Ban... PL 369 98.7 32.1 118.4 92 1 1 0 367 30
08/26/14 Video View Ruf, Darin PHI Gonzalez, Gio WSH 6 Citizens Ban... PL 408 101.9 28.4 99.7 96 0 0 0 408 30
08/26/14 Video View Cabrera, Asdrubal WSH Hamels, Cole PHI 8 Citizens Ban... PL 409 103.8 24.4 97.8 78 -1 0 0 409 25
08/27/14 Video View Rollins, Jimmy PHI Fister, Doug WSH 1 Citizens Ban... JE/L 341 95.6 40.0 65.5 129 9 3 0 328 0
08/27/14 Video View Span, Denard WSH Kendrick, Kyle PHI 5 Citizens Ban... ND 409 105.9 28.4 67.1 88 2 1 0 406 30
08/27/14 Video View Sizemore, Grady PHI Fister, Doug WSH 6 Citizens Ban... PL 372 97.7 34.0 70.7 109 2 2 0 369 22
08/27/14 Video View Byrd, Marlon PHI Detwiler, Ross WSH 7 Citizens Ban... PL 359 95.0 32.2 64.7 86 6 1 0 351 13
09/08/14 Video View Marte, Starling PIT Kendrick, Kyle PHI 5 Citizens Ban... PL 395 100.2 28.2 100.7 91 0 0 0 396 22
09/09/14 Video View Galvis, Freddy PHI Volquez, Edinson PIT 5 Citizens Ban... PL 382 100.4 30.0 68.8 93 -1 0 0 383 30
09/10/14 Video View McCutchen, Andrew PIT Williams, Jerome PHI 5 Citizens Ban... ITP/L 419 105.3 22.8 92.5 75 0 0 0 419 22
09/10/14 Video View Martin, Russell PIT Williams, Jerome PHI 5 Citizens Ban... PL 412 102.9 32.0 96.7 124 -1 0 0 413 30
09/12/14 Video View Asche, Cody PHI Jennings, Dan MIA 10 Citizens Ban... PL 376 101.7 28.3 62.1 78 0 0 0 376 29
09/13/14 Video View Jones, Garrett MIA Kendrick, Kyle PHI 2 Citizens Ban... JE 404 101.4 27.4 81.4 91 0 -1 0 404 23
09/14/14 Video View Hernandez, Enrique MIA Buchanan, David PHI 4 Citizens Ban... PL 390 101.9 26.0 75.1 77 0 0 0 391 25


About HitTracker | Contact Us
© 2006-2009 HitTrackerOnline